Time;durP1;ratioP1;P1;durP2;ratioP2;P2;SDS_P1;SDS_P2;PMS_P1;PMS_P2;Temp;Humidity;BMP_temperature;BMP_pressure;BME280_temperature;BME280_humidity;BME280_pressure;Samples;Min_cycle;Max_cycle;Signal;HPM_P1;HPM_P2
2022/01/06 00:01:34;;;;;;;;;;;;;;;17.14;47.99;101313.13;4986369;28;19945;-50
2022/01/06 00:03:59;;;;;;;;;;;;;;;17.12;48.00;101323.16;4985350;28;19990;-43
2022/01/06 00:06:25;;;;;;;;;;;;;;;17.11;48.22;101325.00;4986011;28;19926;-44
2022/01/06 00:08:50;;;;;;;;;;;;;;;17.09;48.26;101329.69;4986361;28;19940;-47
2022/01/06 00:11:15;;;;;;;;;;;;;;;17.08;48.01;101325.31;4985945;28;19973;-45
2022/01/06 00:16:27;;;;;;;;;;;;;;;17.07;48.07;101325.44;4986075;28;19915;-49
2022/01/06 00:24:15;;;;;;;;;;;;;;;17.04;48.18;101331.97;4985680;28;19952;-47
2022/01/06 00:26:40;;;;;;;;;;;;;;;17.02;48.06;101333.94;5016966;28;19922;-47
2022/01/06 00:29:05;;;;;;;;;;;;;;;17.02;48.04;101336.63;4985427;28;19941;-49
2022/01/06 00:31:31;;;;;;;;;;;;;;;17.01;48.12;101348.38;4985779;28;19941;-44
2022/01/06 00:33:57;;;;;;;;;;;;;;;17.02;48.00;101343.84;4985224;28;19918;-42
2022/01/06 00:36:22;;;;;;;;;;;;;;;17.01;48.14;101339.47;4985428;28;19966;-49
2022/01/06 00:38:47;;;;;;;;;;;;;;;16.99;48.03;101351.22;4985846;28;19969;-45
2022/01/06 00:41:12;;;;;;;;;;;;;;;16.98;48.03;101345.97;4985563;28;19914;-46
2022/01/06 00:43:37;;;;;;;;;;;;;;;16.96;48.22;101351.50;4985647;28;19942;-46
2022/01/06 00:46:03;;;;;;;;;;;;;;;16.94;48.10;101353.47;4983996;28;20385;-49
2022/01/06 00:48:28;;;;;;;;;;;;;;;16.94;48.24;101347.25;4985091;28;19915;-47
2022/01/06 00:50:53;;;;;;;;;;;;;;;16.93;48.20;101349.09;4984421;28;19981;-46
2022/01/06 00:53:18;;;;;;;;;;;;;;;16.92;48.28;101343.88;4985445;28;20012;-49
2022/01/06 00:55:43;;;;;;;;;;;;;;;16.92;48.17;101350.09;4985201;28;19918;-47
2022/01/06 00:58:09;;;;;;;;;;;;;;;16.91;48.26;101342.19;4985319;28;20342;-45
2022/01/06 01:00:41;;;;;;;;;;;;;;;16.91;48.10;101344.88;4985105;28;20371;-47
2022/01/06 01:03:11;;;;;;;;;;;;;;;16.88;48.09;101351.38;4985066;28;19925;-46
2022/01/06 01:05:36;;;;;;;;;;;;;;;16.87;48.12;101347.00;4984451;28;19914;-45
2022/01/06 01:08:01;;;;;;;;;;;;;;;16.87;48.08;101355.06;4983650;28;19956;-45
2022/01/06 01:10:26;;;;;;;;;;;;;;;16.86;48.16;101356.03;4983459;28;19914;-45
2022/01/06 01:12:51;;;;;;;;;;;;;;;16.85;48.21;101354.34;4984747;28;19973;-47
2022/01/06 01:15:20;;;;;;;;;;;;;;;16.84;47.99;101351.81;4984636;28;19922;-48
2022/01/06 01:17:47;;;;;;;;;;;;;;;16.83;47.98;101358.19;4984330;28;19915;-45
2022/01/06 01:20:13;;;;;;;;;;;;;;;16.84;48.15;101359.88;4983819;28;19953;-49
2022/01/06 01:22:38;;;;;;;;;;;;;;;16.82;47.95;101360.03;4984720;28;19922;-47
2022/01/06 01:25:04;;;;;;;;;;;;;;;16.82;48.18;101357.34;4984418;28;19914;-47
2022/01/06 01:27:34;;;;;;;;;;;;;;;16.82;48.13;101361.84;4984721;28;19915;-46
2022/01/06 01:30:04;;;;;;;;;;;;;;;16.80;48.01;101370.03;4984601;28;20582;-46
2022/01/06 01:32:36;;;;;;;;;;;;;;;16.80;48.05;101370.03;4984874;28;19926;-46
2022/01/06 01:35:02;;;;;;;;;;;;;;;16.79;47.95;101371.03;4990450;28;19920;-49
2022/01/06 01:37:27;;;;;;;;;;;;;;;16.79;47.95;101387.16;4984513;28;19921;-44
2022/01/06 01:39:53;;;;;;;;;;;;;;;16.79;48.13;101386.31;4984447;28;19914;-50
2022/01/06 01:42:18;;;;;;;;;;;;;;;16.78;48.01;101390.84;4982854;28;19918;-46
2022/01/06 01:44:44;;;;;;;;;;;;;;;16.77;47.99;101385.59;4984203;28;20000;-49
2022/01/06 01:47:14;;;;;;;;;;;;;;;16.76;47.90;101398.19;4984470;28;19914;-43
2022/01/06 01:49:59;;;;;;;;;;;;;;;16.73;47.94;101399.28;4982409;28;19922;-44
2022/01/06 01:52:24;;;;;;;;;;;;;;;16.73;48.11;101403.81;4984144;28;19990;-45
2022/01/06 01:54:50;;;;;;;;;;;;;;;16.71;47.95;101414.69;4984169;28;19914;-45
2022/01/06 01:57:15;;;;;;;;;;;;;;;16.71;47.99;101417.38;4984300;28;19914;-46
2022/01/06 01:59:40;;;;;;;;;;;;;;;16.71;47.93;101419.22;4984184;28;19922;-44
2022/01/06 02:02:05;;;;;;;;;;;;;;;16.70;48.10;101420.22;4984159;28;19926;-49
2022/01/06 02:04:30;;;;;;;;;;;;;;;16.69;48.04;101432.78;4983497;28;19918;-48
2022/01/06 02:06:55;;;;;;;;;;;;;;;16.68;47.88;101430.22;4984139;28;19914;-47
2022/01/06 02:09:21;;;;;;;;;;;;;;;16.68;47.88;101436.44;4984035;28;20009;-46
2022/01/06 02:11:46;;;;;;;;;;;;;;;16.68;47.94;101436.44;4983768;28;19941;-46
2022/01/06 02:14:11;;;;;;;;;;;;;;;16.66;47.85;101441.13;4983807;28;19929;-44
2022/01/06 02:16:37;;;;;;;;;;;;;;;16.67;48.08;101447.34;4984076;28;19926;-47
2022/01/06 02:19:03;;;;;;;;;;;;;;;16.66;47.82;101453.69;4983107;28;20402;-46
2022/01/06 02:21:28;;;;;;;;;;;;;;;16.64;47.91;101450.28;4983910;28;19914;-45
2022/01/06 02:23:53;;;;;;;;;;;;;;;16.63;48.02;101462.03;4984154;28;19921;-44
2022/01/06 02:26:18;;;;;;;;;;;;;;;16.62;48.00;101468.38;4983924;28;20486;-46
2022/01/06 02:28:44;;;;;;;;;;;;;;;16.62;47.95;101466.53;4986991;28;19921;-45
2022/01/06 02:31:09;;;;;;;;;;;;;;;16.58;48.08;101469.66;4987762;28;19914;-47
2022/01/06 02:33:34;;;;;;;;;;;;;;;16.60;47.89;101475.72;4987766;28;19918;-44
2022/01/06 02:36:00;;;;;;;;;;;;;;;16.59;47.99;101474.03;4987476;28;20298;-44
2022/01/06 02:38:25;;;;;;;;;;;;;;;16.59;47.93;101474.03;4987977;28;20414;-45
2022/01/06 02:40:50;;;;;;;;;;;;;;;16.57;47.96;101468.81;4987380;28;20323;-47
2022/01/06 02:43:18;;;;;;;;;;;;;;;16.56;48.09;101471.63;4987875;28;19918;-47
2022/01/06 02:45:43;;;;;;;;;;;;;;;16.56;47.85;101471.63;4987401;28;20682;-45
2022/01/06 02:48:08;;;;;;;;;;;;;;;16.54;47.94;101473.59;4987608;28;19914;-49
2022/01/06 02:50:38;;;;;;;;;;;;;;;16.52;47.82;101468.34;4986858;28;19986;-48
2022/01/06 02:53:04;;;;;;;;;;;;;;;16.52;48.09;101472.88;4987287;28;19952;-45
2022/01/06 02:55:29;;;;;;;;;;;;;;;16.51;47.90;101472.03;4973052;28;19914;-47
2022/01/06 02:57:54;;;;;;;;;;;;;;;16.50;47.92;101473.03;4982857;28;19915;-45
2022/01/06 03:00:19;;;;;;;;;;;;;;;16.49;47.97;101476.72;4967804;29;19922;-48
2022/01/06 03:02:46;;;;;;;;;;;;;;;16.48;48.04;101472.31;4969761;28;19926;-48
2022/01/06 03:05:11;;;;;;;;;;;;;;;16.47;47.98;101478.66;4986388;28;19941;-46
2022/01/06 03:07:37;;;;;;;;;;;;;;;16.46;47.96;101476.97;4987285;28;19914;-50
2022/01/06 03:10:04;;;;;;;;;;;;;;;16.45;47.96;101484.19;4987030;28;19921;-48
2022/01/06 03:12:34;;;;;;;;;;;;;;;16.45;48.02;101483.34;4987305;28;19925;-45
2022/01/06 03:15:00;;;;;;;;;;;;;;;16.44;47.92;101487.84;4987053;28;19937;-46
2022/01/06 03:17:25;;;;;;;;;;;;;;;16.42;47.97;101489.81;4987068;28;19918;-48
2022/01/06 03:19:50;;;;;;;;;;;;;;;16.43;47.94;101487.97;4986162;28;19957;-47
2022/01/06 03:22:15;;;;;;;;;;;;;;;16.40;47.89;101486.44;4986817;28;19937;-49
2022/01/06 03:24:41;;;;;;;;;;;;;;;16.40;48.11;101486.44;4986838;28;19949;-48
2022/01/06 03:27:06;;;;;;;;;;;;;;;16.39;48.04;101494.59;4986897;28;20008;-49
2022/01/06 03:29:31;;;;;;;;;;;;;;;16.38;48.07;101496.44;4986723;28;20387;-50
2022/01/06 03:31:58;;;;;;;;;;;;;;;16.39;48.02;101494.59;4986726;28;19922;-47
2022/01/06 03:34:23;;;;;;;;;;;;;;;16.39;48.02;101499.97;4986139;28;19918;-47
2022/01/06 03:36:48;;;;;;;;;;;;;;;16.38;48.08;101496.44;4986502;28;19977;-48
2022/01/06 03:39:14;;;;;;;;;;;;;;;16.38;48.08;101506.34;4985969;28;19914;-47
2022/01/06 03:41:39;;;;;;;;;;;;;;;16.38;47.91;101509.03;4986588;28;19914;-46
2022/01/06 03:44:04;;;;;;;;;;;;;;;16.36;48.08;101505.63;4986308;28;19914;-48
2022/01/06 03:46:29;;;;;;;;;;;;;;;16.37;48.13;101518.06;4986419;28;20635;-49
2022/01/06 03:48:54;;;;;;;;;;;;;;;16.35;47.99;101503.91;4986273;28;19938;-47
2022/01/06 03:51:23;;;;;;;;;;;;;;;16.34;48.10;101515.66;4986004;28;19920;-49
2022/01/06 03:53:48;;;;;;;;;;;;;;;16.34;47.93;101516.50;4986474;28;19918;-47
2022/01/06 03:56:13;;;;;;;;;;;;;;;16.33;47.92;101514.81;4986090;28;19938;-46
2022/01/06 03:58:40;;;;;;;;;;;;;;;16.34;47.93;101519.16;4986318;28;19914;-48
2022/01/06 04:01:05;;;;;;;;;;;;;;;16.33;47.98;101516.63;4986323;28;19914;-44
2022/01/06 04:03:30;;;;;;;;;;;;;;;16.32;47.98;101520.31;4986188;28;20610;-47
2022/01/06 04:05:55;;;;;;;;;;;;;;;16.31;48.11;101530.19;4985392;28;19918;-45
2022/01/06 04:08:20;;;;;;;;;;;;;;;16.31;48.09;101516.78;4986141;28;19922;-45
2022/01/06 04:10:46;;;;;;;;;;;;;;;16.30;48.04;101516.91;4985837;28;19925;-47
2022/01/06 04:13:11;;;;;;;;;;;;;;;16.29;47.98;101518.75;4984882;28;19922;-46
2022/01/06 04:15:36;;;;;;;;;;;;;;;16.29;48.10;101531.31;4985834;28;19914;-45
2022/01/06 04:18:01;;;;;;;;;;;;;;;16.28;48.04;101541.19;4985925;28;20351;-47
2022/01/06 04:20:26;;;;;;;;;;;;;;;16.27;48.07;101539.50;4985115;28;19989;-45
2022/01/06 04:22:51;;;;;;;;;;;;;;;16.25;47.98;101539.63;4985920;28;19918;-44
2022/01/06 04:25:16;;;;;;;;;;;;;;;16.24;47.89;101543.31;4985949;28;20566;-46
2022/01/06 04:27:42;;;;;;;;;;;;;;;16.24;47.86;101537.09;4985715;28;19914;-48
2022/01/06 04:30:07;;;;;;;;;;;;;;;16.23;47.92;101544.28;4985559;28;19961;-45
2022/01/06 04:32:33;;;;;;;;;;;;;;;16.22;48.08;101542.56;4985637;28;19961;-45
2022/01/06 04:34:58;;;;;;;;;;;;;;;16.21;48.02;101548.94;4984768;28;20419;-45
2022/01/06 04:37:25;;;;;;;;;;;;;;;16.20;48.02;101549.06;4985510;28;19925;-44
2022/01/06 04:39:50;;;;;;;;;;;;;;;16.19;47.85;101545.53;4985577;28;19915;-46
2022/01/06 04:42:15;;;;;;;;;;;;;;;16.20;47.95;101543.72;4985272;28;19948;-48
2022/01/06 04:44:40;;;;;;;;;;;;;;;16.19;48.05;101552.75;4983699;28;19918;-45
2022/01/06 04:47:05;;;;;;;;;;;;;;;16.17;48.02;101560.91;4985337;28;19914;-48
2022/01/06 04:49:31;;;;;;;;;;;;;;;16.17;47.99;101558.22;4984724;28;19930;-44
2022/01/06 04:51:56;;;;;;;;;;;;;;;16.18;48.06;101567.13;4984214;28;19942;-48
2022/01/06 04:54:21;;;;;;;;;;;;;;;16.16;47.96;101569.09;4985423;28;19914;-45
2022/01/06 04:56:46;;;;;;;;;;;;;;;16.16;48.03;101571.78;4985077;28;19957;-46
2022/01/06 04:59:11;;;;;;;;;;;;;;;16.14;48.14;101569.25;4985052;28;19914;-45
2022/01/06 05:01:37;;;;;;;;;;;;;;;16.13;48.00;101569.38;4985166;28;19914;-47
2022/01/06 05:04:02;;;;;;;;;;;;;;;16.13;48.06;101574.72;4984199;28;19986;-47
2022/01/06 05:06:28;;;;;;;;;;;;;;;16.12;48.13;101584.63;4985094;28;19929;-44
2022/01/06 05:08:53;;;;;;;;;;;;;;;16.12;48.09;101583.78;4985087;28;19914;-49
2022/01/06 05:11:18;;;;;;;;;;;;;;;16.12;47.96;101589.13;4985020;28;19949;-47
2022/01/06 05:13:53;;;;;;;;;;;;;;;16.11;48.02;101592.81;5080239;28;19943;-46
2022/01/06 05:16:18;;;;;;;;;;;;;;;16.09;47.95;101600.97;5080326;28;19916;-46
2022/01/06 05:18:44;;;;;;;;;;;;;;;16.07;47.95;101605.63;5080057;28;19920;-48
2022/01/06 05:21:09;;;;;;;;;;;;;;;16.07;47.98;101605.63;5079528;28;19920;-46
2022/01/06 05:23:35;;;;;;;;;;;;;;;16.06;47.97;101617.34;5080429;28;19912;-46
2022/01/06 05:26:00;;;;;;;;;;;;;;;16.06;48.07;101611.16;5080027;28;20113;-44
2022/01/06 05:28:25;;;;;;;;;;;;;;;16.05;48.31;101620.16;5080087;28;19944;-44
2022/01/06 05:30:50;;;;;;;;;;;;;;;16.04;48.04;101623.81;5080212;28;19920;-44
2022/01/06 05:33:15;;;;;;;;;;;;;;;16.03;48.12;101616.75;5078609;28;19917;-47
2022/01/06 05:35:41;;;;;;;;;;;;;;;16.02;48.01;101623.97;5077955;28;19916;-45
2022/01/06 05:38:06;;;;;;;;;;;;;;;16.02;47.98;101613.22;5079530;28;19919;-47
2022/01/06 05:40:31;;;;;;;;;;;;;;;16.02;48.09;101610.56;5080036;28;19920;-47
2022/01/06 05:42:57;;;;;;;;;;;;;;;16.02;48.08;101617.75;5079881;28;19952;-45
2022/01/06 05:45:23;;;;;;;;;;;;;;;16.01;48.09;101614.19;5079597;28;19967;-46
2022/01/06 05:47:48;;;;;;;;;;;;;;;16.01;48.12;101624.91;5079532;28;19916;-47
2022/01/06 05:50:13;;;;;;;;;;;;;;;16.02;48.06;101617.75;5078930;28;19913;-46
2022/01/06 05:52:38;;;;;;;;;;;;;;;16.02;47.87;101620.44;5079368;28;19923;-44
2022/01/06 05:55:04;;;;;;;;;;;;;;;16.02;48.03;101621.28;5069957;28;20011;-45
2022/01/06 05:57:29;;;;;;;;;;;;;;;16.02;47.94;101628.47;5074091;28;19912;-47
2022/01/06 05:59:54;;;;;;;;;;;;;;;16.02;48.09;101623.13;5078806;28;19912;-44
2022/01/06 06:02:19;;;;;;;;;;;;;;;16.03;48.09;101630.19;5071033;28;20301;-45
2022/01/06 06:04:45;;;;;;;;;;;;;;;16.03;48.11;101639.06;5076187;28;19921;-44
2022/01/06 06:07:11;;;;;;;;;;;;;;;16.03;48.00;101644.44;5063862;28;20282;-43
2022/01/06 06:09:36;;;;;;;;;;;;;;;16.04;48.05;101651.50;5062453;28;19916;-45
2022/01/06 06:12:01;;;;;;;;;;;;;;;16.05;48.08;101649.66;5083154;28;19920;-46
2022/01/06 06:14:26;;;;;;;;;;;;;;;16.05;48.22;101655.03;5087782;28;19920;-46
2022/01/06 06:16:51;;;;;;;;;;;;;;;16.05;48.20;101661.22;5078665;28;19924;-45
2022/01/06 06:19:16;;;;;;;;;;;;;;;16.05;48.11;101657.69;5094575;28;19921;-46
2022/01/06 06:21:42;;;;;;;;;;;;;;;16.05;48.38;101657.69;5080408;28;19959;-46
2022/01/06 06:24:07;;;;;;;;;;;;;;;16.05;48.39;101661.22;5088462;28;19912;-47
2022/01/06 06:26:32;;;;;;;;;;;;;;;16.06;48.30;101662.09;5080598;28;19924;-50
2022/01/06 06:28:57;;;;;;;;;;;;;;;16.06;48.49;101668.31;5076721;28;19931;-47
2022/01/06 06:31:22;;;;;;;;;;;;;;;16.06;48.41;101664.78;5075142;28;20266;-45
2022/01/06 06:33:47;;;;;;;;;;;;;;;16.07;48.39;101666.50;5078512;28;19928;-45
2022/01/06 06:36:13;;;;;;;;;;;;;;;16.06;48.33;101665.63;5069991;28;20507;-45
2022/01/06 06:38:38;;;;;;;;;;;;;;;16.07;48.59;101672.69;5074740;28;19919;-44
2022/01/06 06:41:03;;;;;;;;;;;;;;;16.09;48.50;101672.56;5084461;28;19923;-45
2022/01/06 06:43:28;;;;;;;;;;;;;;;16.08;48.57;101679.75;5082019;28;19912;-44
2022/01/06 06:45:53;;;;;;;;;;;;;;;16.08;48.62;101679.75;5060356;28;19924;-45
2022/01/06 06:48:18;;;;;;;;;;;;;;;16.08;48.65;101682.44;5059222;28;19920;-45
2022/01/06 06:50:44;;;;;;;;;;;;;;;16.09;48.68;101681.44;5081238;28;19932;-46
2022/01/06 06:53:09;;;;;;;;;;;;;;;16.08;48.65;101682.44;5081461;28;19917;-43
2022/01/06 06:55:34;;;;;;;;;;;;;;;16.08;48.67;101682.44;5083497;28;19912;-45
2022/01/06 06:57:59;;;;;;;;;;;;;;;16.10;48.68;101687.66;5077197;28;19934;-48
2022/01/06 07:00:24;;;;;;;;;;;;;;;16.10;48.76;101698.38;5072242;28;19917;-46
2022/01/06 07:02:49;;;;;;;;;;;;;;;16.11;48.75;101705.47;5081347;28;19935;-46
2022/01/06 07:05:17;;;;;;;;;;;;;;;16.11;48.63;101702.81;5080085;28;19998;-46
2022/01/06 07:07:43;;;;;;;;;;;;;;;16.10;48.72;101699.28;5077708;28;19917;-46
2022/01/06 07:10:08;;;;;;;;;;;;;;;16.11;48.78;101708.16;5075534;28;19933;-49
2022/01/06 07:12:37;;;;;;;;;;;;;;;16.11;48.79;101722.44;5073158;28;19921;-50
2022/01/06 07:15:02;;;;;;;;;;;;;;;16.14;48.74;101723.97;5084178;28;20401;-50
2022/01/06 07:17:28;;;;;;;;;;;;;;;16.17;48.79;101731.78;5067249;28;19916;-51
2022/01/06 07:19:53;;;;;;;;;;;;;;;16.21;48.58;101734.06;5083491;28;19919;-46
2022/01/06 07:22:18;;;;;;;;;;;;;;;16.25;48.58;101732.81;5074207;28;19919;-49
2022/01/06 07:24:43;;;;;;;;;;;;;;;16.29;48.60;101746.84;5079927;28;20050;-49
2022/01/06 07:27:08;;;;;;;;;;;;;;;16.32;48.45;101740.38;5075579;28;19927;-48
2022/01/06 07:29:33;;;;;;;;;;;;;;;16.34;48.34;101736.53;5077473;28;19956;-49
2022/01/06 07:31:58;;;;;;;;;;;;;;;16.38;48.16;101745.19;5068149;28;19966;-50
2022/01/06 07:34:24;;;;;;;;;;;;;;;16.38;48.36;101742.50;5083328;28;19951;-50
2022/01/06 07:36:49;;;;;;;;;;;;;;;16.39;48.39;101750.41;5061160;28;19927;-47
2022/01/06 07:39:14;;;;;;;;;;;;;;;16.39;48.22;101750.41;5067363;28;20347;-49
2022/01/06 07:41:39;;;;;;;;;;;;;;;16.41;48.23;101753.00;5083768;28;19917;-50
2022/01/06 07:44:07;;;;;;;;;;;;;;;16.44;48.16;101755.41;5077898;28;19956;-50
2022/01/06 07:46:32;;;;;;;;;;;;;;;16.45;48.25;101759.78;5074970;28;19913;-49
2022/01/06 07:48:57;;;;;;;;;;;;;;;16.46;48.07;101762.34;5071484;28;19944;-47
2022/01/06 07:51:23;;;;;;;;;;;;;;;16.47;48.01;101760.50;5079927;28;19970;-49
2022/01/06 07:53:49;;;;;;;;;;;;;;;16.47;48.01;101769.41;5074262;28;19947;-47
2022/01/06 07:56:14;;;;;;;;;;;;;;;16.48;47.92;101765.75;5083283;28;19913;-49
2022/01/06 07:58:39;;;;;;;;;;;;;;;16.49;48.07;101774.66;5076159;28;19950;-51
2022/01/06 08:01:04;;;;;;;;;;;;;;;16.50;47.93;101769.16;5070586;28;19916;-47
2022/01/06 08:03:29;;;;;;;;;;;;;;;16.52;48.08;101779.75;5077296;28;19913;-47
2022/01/06 08:05:54;;;;;;;;;;;;;;;16.53;48.03;101773.41;5074732;28;20016;-45
2022/01/06 08:08:20;;;;;;;;;;;;;;;16.56;47.83;101778.50;5072897;28;20391;-47
2022/01/06 08:10:45;;;;;;;;;;;;;;;16.58;47.87;101773.88;5081972;28;19923;-47
2022/01/06 08:13:10;;;;;;;;;;;;;;;16.61;47.66;101770.91;5080135;28;19920;-49
2022/01/06 08:15:35;;;;;;;;;;;;;;;16.64;47.62;101775.16;5071868;28;19912;-45
2022/01/06 08:18:00;;;;;;;;;;;;;;;16.65;47.48;101769.66;5080253;28;19971;-47
2022/01/06 08:20:25;;;;;;;;;;;;;;;16.67;47.48;101767.69;5074647;28;19919;-50
2022/01/06 08:22:51;;;;;;;;;;;;;;;16.69;47.52;101779.16;5079347;28;19981;-48
2022/01/06 08:25:16;;;;;;;;;;;;;;;16.71;47.40;101765.59;5082016;28;19984;-46
2022/01/06 08:27:41;;;;;;;;;;;;;;;16.73;47.27;101777.06;5083266;28;19913;-46
2022/01/06 08:30:06;;;;;;;;;;;;;;;16.73;47.21;101769.88;5082966;28;19983;-45
2022/01/06 08:32:32;;;;;;;;;;;;;;;16.78;47.15;101776.66;5082995;28;19923;-49
2022/01/06 08:34:57;;;;;;;;;;;;;;;16.79;47.13;101776.56;5082670;28;19912;-44
2022/01/06 08:37:22;;;;;;;;;;;;;;;16.82;47.04;101784.34;5082784;28;19916;-46
2022/01/06 08:39:47;;;;;;;;;;;;;;;16.85;47.02;101788.59;5083427;28;19927;-46
2022/01/06 08:42:12;;;;;;;;;;;;;;;16.87;46.93;101781.25;5083427;28;20618;-46
2022/01/06 08:44:39;;;;;;;;;;;;;;;16.90;46.71;101783.66;5083094;28;19920;-44
2022/01/06 08:47:05;;;;;;;;;;;;;;;16.92;46.63;101787.94;5082864;28;20316;-48
2022/01/06 08:49:31;;;;;;;;;;;;;;;16.98;46.70;101787.38;5082405;28;19916;-48
2022/01/06 08:51:56;;;;;;;;;;;;;;;17.12;46.48;101794.25;5076898;28;19931;-47
2022/01/06 08:54:21;;;;;;;;;;;;;;;17.30;46.30;101788.22;5077766;28;19920;-50
2022/01/06 08:56:46;;;;;;;;;;;;;;;17.47;46.01;101803.69;5080527;28;19948;-47
2022/01/06 08:59:11;;;;;;;;;;;;;;;17.61;45.89;101805.97;5077193;28;19920;-43
2022/01/06 09:01:37;;;;;;;;;;;;;;;17.76;45.76;101803.78;5078475;28;20341;-44
2022/01/06 09:04:02;;;;;;;;;;;;;;;17.92;45.41;101806.75;5045466;28;19916;-47
2022/01/06 09:06:27;;;;;;;;;;;;;;;18.07;45.14;101793.75;5062697;28;19920;-52
2022/01/06 09:08:52;;;;;;;;;;;;;;;18.17;44.98;101799.97;5062615;28;20586;-46
2022/01/06 09:11:18;;;;;;;;;;;;;;;18.20;44.83;101805.09;5079231;28;19955;-45
2022/01/06 09:13:43;;;;;;;;;;;;;;;18.14;44.71;101805.66;5078889;28;19920;-40
2022/01/06 09:16:09;;;;;;;;;;;;;;;18.09;45.03;101812.44;5079933;28;19982;-47
2022/01/06 09:18:35;;;;;;;;;;;;;;;18.02;45.08;101814.88;5080331;28;20347;-47
2022/01/06 09:21:00;;;;;;;;;;;;;;;17.98;45.23;101813.44;5075167;28;19985;-47
2022/01/06 09:23:25;;;;;;;;;;;;;;;17.96;45.31;101810.03;5059670;28;20369;-46
2022/01/06 09:25:50;;;;;;;;;;;;;;;17.83;45.26;101802.22;5063579;28;19920;-43
2022/01/06 09:28:15;;;;;;;;;;;;;;;17.93;45.32;101821.94;5076680;28;19973;-47
2022/01/06 09:30:41;;;;;;;;;;;;;;;17.90;45.40;101827.59;5069804;28;19948;-48
2022/01/06 09:33:06;;;;;;;;;;;;;;;17.88;45.38;101831.41;5052084;28;19984;-47
2022/01/06 09:35:31;;;;;;;;;;;;;;;17.86;45.36;101828.84;5081696;28;19984;-48
2022/01/06 09:37:56;;;;;;;;;;;;;;;17.84;45.49;101833.53;5081701;28;20246;-47
2022/01/06 09:40:21;;;;;;;;;;;;;;;17.82;45.45;101834.66;5082038;28;20195;-47
2022/01/06 09:42:47;;;;;;;;;;;;;;;17.80;45.43;101832.13;5082528;28;19919;-51
2022/01/06 09:45:12;;;;;;;;;;;;;;;17.80;45.42;101836.63;5082362;28;19916;-45
2022/01/06 09:47:38;;;;;;;;;;;;;;;17.79;45.14;101838.47;5082354;28;19979;-49
2022/01/06 09:50:03;;;;;;;;;;;;;;;17.78;45.24;101838.63;5081860;28;19923;-49
2022/01/06 09:52:28;;;;;;;;;;;;;;;17.76;45.21;101837.91;5082190;28;19916;-46
2022/01/06 09:54:54;;;;;;;;;;;;;;;17.75;45.15;101839.72;5082148;28;19916;-49
2022/01/06 09:57:19;;;;;;;;;;;;;;;17.74;45.09;101846.94;5082508;28;19955;-48
2022/01/06 09:59:44;;;;;;;;;;;;;;;17.73;45.27;101844.38;5084394;28;19938;-49
2022/01/06 10:02:16;;;;;;;;;;;;;;;17.71;45.18;101851.72;5086133;28;19952;-47
2022/01/06 10:04:41;;;;;;;;;;;;;;;17.72;45.05;101846.22;5085333;28;20421;-48
2022/01/06 10:07:08;;;;;;;;;;;;;;;17.70;45.12;101845.50;5085823;28;19948;-50
2022/01/06 10:09:34;;;;;;;;;;;;;;;17.70;45.18;101844.66;5085790;28;19920;-51
2022/01/06 10:12:00;;;;;;;;;;;;;;;17.68;45.02;101842.09;5085780;28;19930;-50
2022/01/06 10:14:38;;;;;;;;;;;;;;;17.67;45.19;101843.09;5085768;28;19964;-49
2022/01/06 10:17:04;;;;;;;;;;;;;;;17.66;45.20;101845.91;5086004;28;19926;-47
2022/01/06 10:19:29;;;;;;;;;;;;;;;17.66;45.16;101845.91;5085060;28;19919;-45
2022/01/06 10:21:57;;;;;;;;;;;;;;;17.66;45.16;101851.28;5085704;28;19912;-47
2022/01/06 10:24:23;;;;;;;;;;;;;;;17.64;45.03;101843.38;5085795;28;19944;-50
2022/01/06 10:26:58;;;;;;;;;;;;;;;17.65;45.02;101841.53;5085004;28;19923;-50
2022/01/06 10:29:25;;;;;;;;;;;;;;;17.66;45.07;101827.09;5085497;28;19919;-48
2022/01/06 10:31:50;;;;;;;;;;;;;;;17.66;44.95;101827.09;5085712;28;19913;-48
2022/01/06 10:34:16;;;;;;;;;;;;;;;17.66;45.13;101827.09;5085032;28;19917;-48
2022/01/06 10:36:41;;;;;;;;;;;;;;;17.67;45.07;101831.47;5085395;28;19913;-47
2022/01/06 10:39:08;;;;;;;;;;;;;;;17.66;45.21;101825.25;5085312;28;19913;-48
2022/01/06 10:41:33;;;;;;;;;;;;;;;17.66;45.11;101822.53;5085582;28;19944;-46
2022/01/06 10:43:59;;;;;;;;;;;;;;;17.67;45.19;101823.41;5085325;28;20300;-45
2022/01/06 10:46:39;;;;;;;;;;;;;;;17.68;45.00;101827.81;5085400;28;20030;-48
2022/01/06 10:49:08;;;;;;;;;;;;;;;17.68;44.92;101817.91;5084788;28;19912;-51
2022/01/06 10:51:44;;;;;;;;;;;;;;;17.68;45.07;101809.84;5084989;28;19920;-47
2022/01/06 10:54:10;;;;;;;;;;;;;;;17.69;45.02;101813.38;5085518;28;19917;-51
2022/01/06 10:56:35;;;;;;;;;;;;;;;17.69;45.14;101814.22;5085051;28;19912;-51
2022/01/06 10:59:01;;;;;;;;;;;;;;;17.69;44.96;101808.84;5084909;28;20645;-47
2022/01/06 11:01:26;;;;;;;;;;;;;;;17.70;44.89;101812.38;5085219;28;20419;-47
2022/01/06 11:03:51;;;;;;;;;;;;;;;17.70;45.11;101809.69;5084887;28;19920;-51
2022/01/06 11:06:16;;;;;;;;;;;;;;;17.70;45.07;101805.16;5084656;28;19912;-49
2022/01/06 11:08:43;;;;;;;;;;;;;;;17.71;45.06;101800.63;5084817;28;19913;-48
2022/01/06 11:13:34;;;;;;;;;;;;;;;17.74;44.82;101803.06;5084696;28;19920;-50
2022/01/06 11:16:00;;;;;;;;;;;;;;;17.74;44.97;101808.44;5084499;28;19924;-46
2022/01/06 11:18:25;;;;;;;;;;;;;;;17.75;44.99;101804.75;5083204;28;19916;-46
2022/01/06 11:20:51;;;;;;;;;;;;;;;17.76;45.05;101805.63;5066235;28;19921;-49
2022/01/06 11:23:20;;;;;;;;;;;;;;;17.78;44.98;101809.03;5066340;28;19913;-50
2022/01/06 11:25:45;;;;;;;;;;;;;;;17.79;45.00;101808.03;5084132;28;19917;-49
2022/01/06 11:28:11;;;;;;;;;;;;;;;17.80;45.00;101809.72;5084538;28;19983;-48
2022/01/06 11:30:40;;;;;;;;;;;;;;;17.81;44.96;101808.75;5084444;28;19917;-50
2022/01/06 11:33:05;;;;;;;;;;;;;;;17.81;44.88;101809.59;5084438;28;19927;-46
2022/01/06 11:35:32;;;;;;;;;;;;;;;17.83;44.98;101806.75;5083866;28;19912;-44
2022/01/06 11:37:57;;;;;;;;;;;;;;;17.82;44.92;101805.91;5065868;28;19924;-44
2022/01/06 11:40:30;;;;;;;;;;;;;;;17.83;44.71;101810.28;5084320;28;19913;-50
2022/01/06 11:42:55;;;;;;;;;;;;;;;17.85;44.93;101804.78;5084144;28;19913;-48
2022/01/06 11:45:21;;;;;;;;;;;;;;;17.86;44.80;101804.66;5083992;28;19942;-48
2022/01/06 11:47:46;;;;;;;;;;;;;;;17.87;45.04;101806.34;5084039;28;19913;-50
2022/01/06 11:50:24;;;;;;;;;;;;;;;17.88;44.90;101815.25;5083369;28;19912;-49
2022/01/06 11:52:50;;;;;;;;;;;;;;;17.89;44.74;101804.38;5083817;28;19917;-51
2022/01/06 11:55:15;;;;;;;;;;;;;;;17.90;44.75;101811.44;5083552;28;19919;-48
2022/01/06 11:57:40;;;;;;;;;;;;;;;17.93;44.94;101813.03;5083833;28;19916;-47
2022/01/06 12:00:13;;;;;;;;;;;;;;;17.94;44.78;101812.03;5083673;28;19943;-50
2022/01/06 12:02:38;;;;;;;;;;;;;;;17.94;44.99;101807.50;5083836;28;19912;-51
2022/01/06 12:05:04;;;;;;;;;;;;;;;17.97;44.83;101814.44;5083232;28;19963;-50
2022/01/06 12:07:29;;;;;;;;;;;;;;;17.98;44.88;101811.59;5083495;28;19913;-51
2022/01/06 12:10:07;;;;;;;;;;;;;;;17.99;44.78;101812.44;5083570;28;20544;-45
2022/01/06 12:12:36;;;;;;;;;;;;;;;18.02;44.93;101812.16;5083536;28;19955;-46
2022/01/06 12:15:08;;;;;;;;;;;;;;;18.03;44.97;101816.56;5083479;28;19976;-48
2022/01/06 12:17:33;;;;;;;;;;;;;;;18.05;44.67;101806.47;5083617;28;20340;-49
2022/01/06 12:19:58;;;;;;;;;;;;;;;18.07;44.85;101812.59;5082643;28;19912;-48
2022/01/06 12:22:26;;;;;;;;;;;;;;;18.09;44.80;101805.22;5082764;28;19935;-47
2022/01/06 12:25:01;;;;;;;;;;;;;;;18.11;44.75;101810.47;5083088;28;19927;-49
2022/01/06 12:27:26;;;;;;;;;;;;;;;18.14;44.83;101815.59;5083504;28;19913;-50
2022/01/06 12:29:53;;;;;;;;;;;;;;;18.15;44.90;101818.13;5083310;28;19913;-45
2022/01/06 12:32:19;;;;;;;;;;;;;;;18.17;44.81;101816.13;5083284;28;19951;-49
2022/01/06 12:34:50;;;;;;;;;;;;;;;18.20;44.86;101815.84;5082610;28;19912;-50
2022/01/06 12:37:22;;;;;;;;;;;;;;;18.22;44.72;101807.63;5081920;28;19943;-49
2022/01/06 12:39:47;;;;;;;;;;;;;;;18.24;44.90;101806.50;5083390;28;19920;-50